sensor_id;sensor_type;location;lat;lon;timestamp;pressure;altitude;pressure_sealevel;temperature;humidity
22651;BME280;11492;42.646;23.400;2023-03-15T00:01:10;94081.25;;;7.40;45.42
22651;BME280;11492;42.646;23.400;2023-03-15T00:03:39;94067.63;;;7.19;46.58
22651;BME280;11492;42.646;23.400;2023-03-15T00:06:05;94072.91;;;7.31;46.28
22651;BME280;11492;42.646;23.400;2023-03-15T00:08:30;94078.34;;;7.22;46.73
22651;BME280;11492;42.646;23.400;2023-03-15T00:10:59;94072.22;;;7.23;46.20
22651;BME280;11492;42.646;23.400;2023-03-15T00:13:25;94066.34;;;7.29;46.18
22651;BME280;11492;42.646;23.400;2023-03-15T00:15:55;94050.56;;;7.11;45.16
22651;BME280;11492;42.646;23.400;2023-03-15T00:18:20;94055.78;;;7.18;44.64
22651;BME280;11492;42.646;23.400;2023-03-15T00:20:46;94068.78;;;7.16;43.39
22651;BME280;11492;42.646;23.400;2023-03-15T00:23:13;94059.31;;;7.17;41.87
22651;BME280;11492;42.646;23.400;2023-03-15T00:25:43;94075.53;;;7.38;41.54
22651;BME280;11492;42.646;23.400;2023-03-15T00:28:08;94073.75;;;7.38;40.59
22651;BME280;11492;42.646;23.400;2023-03-15T00:30:34;94066.91;;;7.45;41.05
22651;BME280;11492;42.646;23.400;2023-03-15T00:32:59;94071.56;;;7.56;40.64
22651;BME280;11492;42.646;23.400;2023-03-15T00:35:25;94053.53;;;7.49;40.13
22651;BME280;11492;42.646;23.400;2023-03-15T00:37:54;94065.88;;;7.60;40.09
22651;BME280;11492;42.646;23.400;2023-03-15T00:40:20;94056.22;;;7.62;40.71
22651;BME280;11492;42.646;23.400;2023-03-15T00:42:45;94049.50;;;7.61;40.42
22651;BME280;11492;42.646;23.400;2023-03-15T00:45:15;94041.06;;;7.67;40.05
22651;BME280;11492;42.646;23.400;2023-03-15T00:47:41;94044.03;;;7.70;40.15
22651;BME280;11492;42.646;23.400;2023-03-15T00:50:07;94054.00;;;7.80;40.52
22651;BME280;11492;42.646;23.400;2023-03-15T00:52:34;94047.69;;;7.82;41.11
22651;BME280;11492;42.646;23.400;2023-03-15T00:55:00;94035.41;;;7.78;40.70
22651;BME280;11492;42.646;23.400;2023-03-15T00:57:26;94026.34;;;7.82;40.51
22651;BME280;11492;42.646;23.400;2023-03-15T00:59:51;94035.09;;;7.87;40.56
22651;BME280;11492;42.646;23.400;2023-03-15T01:02:17;94040.88;;;7.95;41.58
22651;BME280;11492;42.646;23.400;2023-03-15T01:04:47;94026.44;;;7.95;40.57
22651;BME280;11492;42.646;23.400;2023-03-15T01:07:12;94034.38;;;7.99;41.89
22651;BME280;11492;42.646;23.400;2023-03-15T01:09:38;94026.31;;;8.02;42.06
22651;BME280;11492;42.646;23.400;2023-03-15T01:12:03;94026.66;;;7.99;39.88
22651;BME280;11492;42.646;23.400;2023-03-15T01:14:29;94019.75;;;8.00;39.84
22651;BME280;11492;42.646;23.400;2023-03-15T01:16:54;94013.16;;;7.91;40.30
22651;BME280;11492;42.646;23.400;2023-03-15T01:19:20;94020.47;;;7.88;40.06
22651;BME280;11492;42.646;23.400;2023-03-15T01:21:46;94012.53;;;7.83;40.47
22651;BME280;11492;42.646;23.400;2023-03-15T01:24:13;94010.94;;;7.82;40.36
22651;BME280;11492;42.646;23.400;2023-03-15T01:26:39;94001.03;;;7.79;41.07
22651;BME280;11492;42.646;23.400;2023-03-15T01:29:05;93998.81;;;7.76;41.08
22651;BME280;11492;42.646;23.400;2023-03-15T01:31:31;94006.16;;;7.79;41.64
22651;BME280;11492;42.646;23.400;2023-03-15T01:33:57;94007.72;;;7.73;42.28
22651;BME280;11492;42.646;23.400;2023-03-15T01:36:23;94011.66;;;7.76;42.20
22651;BME280;11492;42.646;23.400;2023-03-15T01:38:48;94004.94;;;7.75;42.92
22651;BME280;11492;42.646;23.400;2023-03-15T01:41:16;93996.03;;;7.71;42.22
22651;BME280;11492;42.646;23.400;2023-03-15T01:43:42;93994.25;;;7.71;41.54
22651;BME280;11492;42.646;23.400;2023-03-15T01:51:58;93990.72;;;7.72;40.96
22651;BME280;11492;42.646;23.400;2023-03-15T01:54:29;93982.38;;;7.70;41.18
22651;BME280;11492;42.646;23.400;2023-03-15T01:57:02;93988.09;;;7.66;42.42
22651;BME280;11492;42.646;23.400;2023-03-15T01:59:30;93980.75;;;7.63;41.35
22651;BME280;11492;42.646;23.400;2023-03-15T02:01:57;93972.81;;;7.58;41.28
22651;BME280;11492;42.646;23.400;2023-03-15T02:04:31;93982.88;;;7.60;42.14
22651;BME280;11492;42.646;23.400;2023-03-15T02:07:00;93979.16;;;7.62;42.07
22651;BME280;11492;42.646;23.400;2023-03-15T02:09:51;93967.31;;;7.61;42.31
22651;BME280;11492;42.646;23.400;2023-03-15T02:12:18;93962.50;;;7.52;43.79
22651;BME280;11492;42.646;23.400;2023-03-15T02:14:44;93961.31;;;7.54;44.90
22651;BME280;11492;42.646;23.400;2023-03-15T02:17:10;93954.56;;;7.47;44.99
22651;BME280;11492;42.646;23.400;2023-03-15T02:22:25;93943.34;;;7.27;45.23
22651;BME280;11492;42.646;23.400;2023-03-15T02:24:57;93930.97;;;7.10;45.03
22651;BME280;11492;42.646;23.400;2023-03-15T02:27:28;93938.28;;;7.13;45.30
22651;BME280;11492;42.646;23.400;2023-03-15T02:29:54;93916.31;;;7.04;45.54
22651;BME280;11492;42.646;23.400;2023-03-15T02:32:20;93939.06;;;7.14;45.99
22651;BME280;11492;42.646;23.400;2023-03-15T02:34:45;93941.97;;;7.04;45.69
22651;BME280;11492;42.646;23.400;2023-03-15T02:37:11;93932.34;;;6.92;45.73
22651;BME280;11492;42.646;23.400;2023-03-15T02:39:36;93945.03;;;6.94;46.69
22651;BME280;11492;42.646;23.400;2023-03-15T02:42:02;93946.94;;;6.92;46.04
22651;BME280;11492;42.646;23.400;2023-03-15T02:47:00;93940.13;;;6.78;45.83
22651;BME280;11492;42.646;23.400;2023-03-15T02:49:30;93943.66;;;6.77;46.81
22651;BME280;11492;42.646;23.400;2023-03-15T02:51:57;93940.41;;;6.69;47.09
22651;BME280;11492;42.646;23.400;2023-03-15T02:54:22;93929.22;;;6.55;46.35
22651;BME280;11492;42.646;23.400;2023-03-15T02:56:48;93944.78;;;6.54;46.50
22651;BME280;11492;42.646;23.400;2023-03-15T02:59:13;93932.31;;;6.51;47.79
22651;BME280;11492;42.646;23.400;2023-03-15T03:01:38;93931.81;;;6.41;48.36
22651;BME280;11492;42.646;23.400;2023-03-15T03:04:04;93920.25;;;6.31;47.56
22651;BME280;11492;42.646;23.400;2023-03-15T03:06:30;93934.06;;;6.30;48.54
22651;BME280;11492;42.646;23.400;2023-03-15T03:08:55;93929.31;;;6.27;48.19
22651;BME280;11492;42.646;23.400;2023-03-15T03:11:21;93921.69;;;6.19;47.59
22651;BME280;11492;42.646;23.400;2023-03-15T03:13:46;93903.44;;;6.08;48.55
22651;BME280;11492;42.646;23.400;2023-03-15T03:16:12;93902.13;;;6.12;48.83
22651;BME280;11492;42.646;23.400;2023-03-15T03:18:38;93910.84;;;6.17;48.55
22651;BME280;11492;42.646;23.400;2023-03-15T03:21:06;93896.28;;;6.03;48.61
22651;BME280;11492;42.646;23.400;2023-03-15T03:23:33;93907.41;;;6.10;48.85
22651;BME280;11492;42.646;23.400;2023-03-15T03:26:00;93906.97;;;6.07;48.42
22651;BME280;11492;42.646;23.400;2023-03-15T03:28:28;93898.06;;;6.03;49.60
22651;BME280;11492;42.646;23.400;2023-03-15T03:30:54;93895.44;;;5.97;49.06
22651;BME280;11492;42.646;23.400;2023-03-15T03:33:21;93885.78;;;5.98;49.07
22651;BME280;11492;42.646;23.400;2023-03-15T03:35:47;93893.91;;;6.02;50.91
22651;BME280;11492;42.646;23.400;2023-03-15T03:38:14;93889.94;;;5.99;50.25
22651;BME280;11492;42.646;23.400;2023-03-15T03:40:40;93875.72;;;5.97;50.04
22651;BME280;11492;42.646;23.400;2023-03-15T03:43:06;93893.72;;;6.03;50.57
22651;BME280;11492;42.646;23.400;2023-03-15T03:45:32;93883.22;;;5.98;50.63
22651;BME280;11492;42.646;23.400;2023-03-15T03:47:58;93879.69;;;5.99;50.06
22651;BME280;11492;42.646;23.400;2023-03-15T03:50:24;93880.91;;;6.03;51.18
22651;BME280;11492;42.646;23.400;2023-03-15T03:52:50;93869.88;;;6.03;51.11
22651;BME280;11492;42.646;23.400;2023-03-15T03:55:15;93879.06;;;6.12;50.76
22651;BME280;11492;42.646;23.400;2023-03-15T03:57:41;93882.03;;;6.15;50.57
22651;BME280;11492;42.646;23.400;2023-03-15T04:00:10;93886.56;;;6.13;49.37
22651;BME280;11492;42.646;23.400;2023-03-15T04:02:36;93881.63;;;6.12;49.34
22651;BME280;11492;42.646;23.400;2023-03-15T04:05:02;93877.53;;;6.17;49.82
22651;BME280;11492;42.646;23.400;2023-03-15T04:07:27;93881.69;;;6.18;50.02
22651;BME280;11492;42.646;23.400;2023-03-15T04:09:53;93870.22;;;6.14;50.46
22651;BME280;11492;42.646;23.400;2023-03-15T04:12:18;93873.03;;;6.19;49.37
22651;BME280;11492;42.646;23.400;2023-03-15T04:14:43;93857.94;;;6.10;49.87
22651;BME280;11492;42.646;23.400;2023-03-15T04:17:09;93844.34;;;6.09;49.43
22651;BME280;11492;42.646;23.400;2023-03-15T04:19:35;93836.06;;;6.07;50.86
22651;BME280;11492;42.646;23.400;2023-03-15T04:22:00;93858.56;;;6.12;50.97
22651;BME280;11492;42.646;23.400;2023-03-15T04:24:32;93860.69;;;6.08;50.74
22651;BME280;11492;42.646;23.400;2023-03-15T04:26:59;93851.03;;;6.10;50.33
22651;BME280;11492;42.646;23.400;2023-03-15T04:29:24;93840.38;;;6.07;51.67
22651;BME280;11492;42.646;23.400;2023-03-15T04:31:50;93854.22;;;6.12;50.53
22651;BME280;11492;42.646;23.400;2023-03-15T04:34:15;93857.06;;;6.17;50.04
22651;BME280;11492;42.646;23.400;2023-03-15T04:36:41;93862.16;;;6.17;50.62
22651;BME280;11492;42.646;23.400;2023-03-15T04:39:07;93861.72;;;6.14;51.43
22651;BME280;11492;42.646;23.400;2023-03-15T04:41:34;93852.22;;;6.08;50.75
22651;BME280;11492;42.646;23.400;2023-03-15T04:44:03;93853.00;;;6.08;50.96
22651;BME280;11492;42.646;23.400;2023-03-15T04:46:30;93856.66;;;6.20;50.94
22651;BME280;11492;42.646;23.400;2023-03-15T04:48:57;93852.44;;;6.27;50.77
22651;BME280;11492;42.646;23.400;2023-03-15T04:51:22;93854.34;;;6.25;50.95
22651;BME280;11492;42.646;23.400;2023-03-15T04:53:48;93864.75;;;6.38;49.93
22651;BME280;11492;42.646;23.400;2023-03-15T04:56:13;93869.16;;;6.44;50.47
22651;BME280;11492;42.646;23.400;2023-03-15T04:58:39;93865.88;;;6.49;51.29
22651;BME280;11492;42.646;23.400;2023-03-15T05:01:04;93862.31;;;6.50;51.41
22651;BME280;11492;42.646;23.400;2023-03-15T05:03:29;93862.94;;;6.52;50.36
22651;BME280;11492;42.646;23.400;2023-03-15T05:05:55;93859.41;;;6.53;51.18
22651;BME280;11492;42.646;23.400;2023-03-15T05:08:20;93845.34;;;6.49;50.79
22651;BME280;11492;42.646;23.400;2023-03-15T05:10:46;93848.50;;;6.51;49.83
22651;BME280;11492;42.646;23.400;2023-03-15T05:13:12;93865.75;;;6.57;50.21
22651;BME280;11492;42.646;23.400;2023-03-15T05:15:37;93860.94;;;6.48;50.09
22651;BME280;11492;42.646;23.400;2023-03-15T05:18:03;93846.69;;;6.46;49.69
22651;BME280;11492;42.646;23.400;2023-03-15T05:20:28;93841.25;;;6.55;49.88
22651;BME280;11492;42.646;23.400;2023-03-15T05:22:54;93851.56;;;6.61;49.88
22651;BME280;11492;42.646;23.400;2023-03-15T05:25:19;93851.66;;;6.68;50.32
22651;BME280;11492;42.646;23.400;2023-03-15T05:27:45;93857.63;;;6.74;50.43
22651;BME280;11492;42.646;23.400;2023-03-15T05:30:11;93851.31;;;6.77;49.15
22651;BME280;11492;42.646;23.400;2023-03-15T05:32:38;93850.97;;;6.80;49.31
22651;BME280;11492;42.646;23.400;2023-03-15T05:35:05;93838.63;;;6.69;49.46
22651;BME280;11492;42.646;23.400;2023-03-15T05:37:32;93826.66;;;6.35;49.03
22651;BME280;11492;42.646;23.400;2023-03-15T05:39:58;93843.47;;;6.58;49.55
22651;BME280;11492;42.646;23.400;2023-03-15T05:42:24;93837.47;;;6.71;49.52
22651;BME280;11492;42.646;23.400;2023-03-15T05:44:54;93845.44;;;6.83;49.92
22651;BME280;11492;42.646;23.400;2023-03-15T05:47:19;93827.00;;;6.94;49.82
22651;BME280;11492;42.646;23.400;2023-03-15T05:49:45;93817.16;;;6.97;49.35
22651;BME280;11492;42.646;23.400;2023-03-15T05:52:10;93822.75;;;7.07;48.83
22651;BME280;11492;42.646;23.400;2023-03-15T05:54:36;93839.09;;;7.26;49.42
22651;BME280;11492;42.646;23.400;2023-03-15T05:57:02;93822.03;;;7.19;49.23
22651;BME280;11492;42.646;23.400;2023-03-15T05:59:27;93851.72;;;7.28;47.71
22651;BME280;11492;42.646;23.400;2023-03-15T06:01:52;93840.25;;;7.24;47.06
22651;BME280;11492;42.646;23.400;2023-03-15T06:04:18;93854.28;;;7.28;47.15
22651;BME280;11492;42.646;23.400;2023-03-15T06:06:43;93846.25;;;7.37;48.51
22651;BME280;11492;42.646;23.400;2023-03-15T06:09:09;93841.16;;;7.44;47.51
22651;BME280;11492;42.646;23.400;2023-03-15T06:11:34;93846.00;;;7.59;48.35
22651;BME280;11492;42.646;23.400;2023-03-15T06:14:00;93838.06;;;7.54;48.56
22651;BME280;11492;42.646;23.400;2023-03-15T06:16:25;93838.53;;;7.70;48.86
22651;BME280;11492;42.646;23.400;2023-03-15T06:18:50;93812.47;;;7.67;48.28
22651;BME280;11492;42.646;23.400;2023-03-15T06:21:16;93810.06;;;7.66;48.37
22651;BME280;11492;42.646;23.400;2023-03-15T06:23:41;93821.75;;;7.68;48.98
22651;BME280;11492;42.646;23.400;2023-03-15T06:26:07;93831.25;;;7.74;48.60
22651;BME280;11492;42.646;23.400;2023-03-15T06:28:33;93828.78;;;7.93;48.55
22651;BME280;11492;42.646;23.400;2023-03-15T06:31:05;93824.91;;;8.10;48.83
22651;BME280;11492;42.646;23.400;2023-03-15T06:33:30;93813.47;;;8.19;48.28
22651;BME280;11492;42.646;23.400;2023-03-15T06:35:56;93820.63;;;8.36;47.35
22651;BME280;11492;42.646;23.400;2023-03-15T06:38:21;93819.84;;;8.42;46.63
22651;BME280;11492;42.646;23.400;2023-03-15T06:40:47;93820.66;;;8.48;46.86
22651;BME280;11492;42.646;23.400;2023-03-15T06:43:12;93829.41;;;8.60;47.27
22651;BME280;11492;42.646;23.400;2023-03-15T06:45:43;93809.59;;;8.61;46.94
22651;BME280;11492;42.646;23.400;2023-03-15T06:48:08;93812.97;;;8.74;47.01
22651;BME280;11492;42.646;23.400;2023-03-15T06:50:34;93822.28;;;8.88;46.83
22651;BME280;11492;42.646;23.400;2023-03-15T06:52:59;93818.72;;;8.89;46.63
22651;BME280;11492;42.646;23.400;2023-03-15T06:55:24;93814.16;;;8.84;46.86
22651;BME280;11492;42.646;23.400;2023-03-15T06:57:50;93793.97;;;8.62;47.25
22651;BME280;11492;42.646;23.400;2023-03-15T07:00:16;93819.91;;;8.80;46.91
22651;BME280;11492;42.646;23.400;2023-03-15T07:02:41;93805.28;;;8.80;47.15
22651;BME280;11492;42.646;23.400;2023-03-15T07:05:07;93796.56;;;8.75;46.90
22651;BME280;11492;42.646;23.400;2023-03-15T07:07:32;93783.09;;;8.73;46.53
22651;BME280;11492;42.646;23.400;2023-03-15T07:09:58;93808.84;;;8.86;46.88
22651;BME280;11492;42.646;23.400;2023-03-15T07:12:23;93808.81;;;8.98;46.88
22651;BME280;11492;42.646;23.400;2023-03-15T07:14:49;93810.41;;;9.12;46.07
22651;BME280;11492;42.646;23.400;2023-03-15T07:17:14;93791.78;;;9.10;45.75
22651;BME280;11492;42.646;23.400;2023-03-15T07:19:40;93789.59;;;9.20;44.45
22651;BME280;11492;42.646;23.400;2023-03-15T07:22:05;93811.16;;;9.45;43.88
22651;BME280;11492;42.646;23.400;2023-03-15T07:24:31;93818.66;;;9.59;42.45
22651;BME280;11492;42.646;23.400;2023-03-15T07:26:56;93805.53;;;9.73;42.28
22651;BME280;11492;42.646;23.400;2023-03-15T07:29:22;93776.94;;;9.81;42.06
22651;BME280;11492;42.646;23.400;2023-03-15T07:31:49;93783.06;;;9.93;42.81
22651;BME280;11492;42.646;23.400;2023-03-15T07:34:14;93781.69;;;9.96;42.35
22651;BME280;11492;42.646;23.400;2023-03-15T07:36:40;93787.19;;;10.06;43.01
22651;BME280;11492;42.646;23.400;2023-03-15T07:39:06;93800.22;;;10.18;43.36
22651;BME280;11492;42.646;23.400;2023-03-15T07:41:31;93802.22;;;10.16;42.93
22651;BME280;11492;42.646;23.400;2023-03-15T07:43:57;93783.56;;;10.14;43.59
22651;BME280;11492;42.646;23.400;2023-03-15T07:46:22;93800.22;;;10.18;44.47
22651;BME280;11492;42.646;23.400;2023-03-15T07:48:48;93808.56;;;10.13;43.39
22651;BME280;11492;42.646;23.400;2023-03-15T07:51:13;93800.97;;;10.24;43.40
22651;BME280;11492;42.646;23.400;2023-03-15T07:53:38;93797.59;;;10.24;43.16
22651;BME280;11492;42.646;23.400;2023-03-15T07:56:04;93790.81;;;10.36;42.81
22651;BME280;11492;42.646;23.400;2023-03-15T07:58:30;93794.25;;;10.54;42.94
22651;BME280;11492;42.646;23.400;2023-03-15T08:00:56;93765.91;;;10.78;42.53
22651;BME280;11492;42.646;23.400;2023-03-15T08:03:23;93791.56;;;11.21;42.24
22651;BME280;11492;42.646;23.400;2023-03-15T08:05:49;93770.38;;;11.37;41.60
22651;BME280;11492;42.646;23.400;2023-03-15T08:08:14;93776.66;;;11.65;41.65
22651;BME280;11492;42.646;23.400;2023-03-15T08:10:40;93778.72;;;11.74;40.43
22651;BME280;11492;42.646;23.400;2023-03-15T08:13:07;93781.75;;;11.89;40.59
22651;BME280;11492;42.646;23.400;2023-03-15T08:15:32;93772.69;;;11.97;40.18
22651;BME280;11492;42.646;23.400;2023-03-15T08:17:58;93751.97;;;12.15;39.81
22651;BME280;11492;42.646;23.400;2023-03-15T08:20:24;93753.28;;;12.35;39.42
22651;BME280;11492;42.646;23.400;2023-03-15T08:22:49;93740.88;;;12.66;38.29
22651;BME280;11492;42.646;23.400;2023-03-15T08:25:18;93740.28;;;13.72;36.86
22651;BME280;11492;42.646;23.400;2023-03-15T08:27:44;93734.78;;;14.46;35.52
22651;BME280;11492;42.646;23.400;2023-03-15T08:30:11;93752.59;;;14.97;33.82
22651;BME280;11492;42.646;23.400;2023-03-15T08:32:42;93753.03;;;14.95;33.42
22651;BME280;11492;42.646;23.400;2023-03-15T08:35:09;93745.06;;;14.69;33.73
22651;BME280;11492;42.646;23.400;2023-03-15T08:37:37;93748.53;;;14.74;33.99
22651;BME280;11492;42.646;23.400;2023-03-15T08:40:03;93741.69;;;15.65;33.08
22651;BME280;11492;42.646;23.400;2023-03-15T08:42:35;93748.44;;;16.03;32.83
22651;BME280;11492;42.646;23.400;2023-03-15T08:45:03;93751.22;;;16.60;31.94
22651;BME280;11492;42.646;23.400;2023-03-15T08:47:29;93735.72;;;17.27;30.28
22651;BME280;11492;42.646;23.400;2023-03-15T08:49:54;93725.50;;;17.21;30.42
22651;BME280;11492;42.646;23.400;2023-03-15T08:52:20;93738.97;;;16.82;30.56
22651;BME280;11492;42.646;23.400;2023-03-15T08:54:46;93730.66;;;16.38;30.83
22651;BME280;11492;42.646;23.400;2023-03-15T08:57:13;93742.28;;;16.09;31.73
22651;BME280;11492;42.646;23.400;2023-03-15T08:59:38;93745.75;;;15.77;31.76
22651;BME280;11492;42.646;23.400;2023-03-15T09:02:04;93751.75;;;15.78;31.28
22651;BME280;11492;42.646;23.400;2023-03-15T09:04:30;93748.25;;;16.26;31.69
22651;BME280;11492;42.646;23.400;2023-03-15T09:06:56;93741.09;;;16.90;30.03
22651;BME280;11492;42.646;23.400;2023-03-15T09:09:22;93748.09;;;17.10;29.51
22651;BME280;11492;42.646;23.400;2023-03-15T09:11:47;93752.63;;;16.94;30.74
22651;BME280;11492;42.646;23.400;2023-03-15T09:14:13;93745.91;;;16.50;30.29
22651;BME280;11492;42.646;23.400;2023-03-15T09:16:38;93732.88;;;15.87;30.43
22651;BME280;11492;42.646;23.400;2023-03-15T09:19:04;93756.56;;;15.48;30.97
22651;BME280;11492;42.646;23.400;2023-03-15T09:21:29;93757.91;;;15.19;32.41
22651;BME280;11492;42.646;23.400;2023-03-15T09:23:55;93758.03;;;14.96;32.33
22651;BME280;11492;42.646;23.400;2023-03-15T09:26:21;93755.75;;;14.56;32.32
22651;BME280;11492;42.646;23.400;2023-03-15T09:28:47;93756.34;;;14.19;33.09
22651;BME280;11492;42.646;23.400;2023-03-15T09:31:12;93750.63;;;14.06;34.16
22651;BME280;11492;42.646;23.400;2023-03-15T09:33:38;93754.69;;;14.02;34.63
22651;BME280;11492;42.646;23.400;2023-03-15T09:36:03;93743.31;;;14.03;33.84
22651;BME280;11492;42.646;23.400;2023-03-15T09:38:29;93752.19;;;14.18;34.44
22651;BME280;11492;42.646;23.400;2023-03-15T09:40:57;93738.25;;;14.51;33.83
22651;BME280;11492;42.646;23.400;2023-03-15T09:43:44;93743.72;;;15.10;33.83
22651;BME280;11492;42.646;23.400;2023-03-15T09:46:25;93728.19;;;15.15;32.96
22651;BME280;11492;42.646;23.400;2023-03-15T09:49:11;93726.28;;;15.10;33.18
22651;BME280;11492;42.646;23.400;2023-03-15T09:51:43;93723.13;;;14.92;33.13
22651;BME280;11492;42.646;23.400;2023-03-15T09:56:54;93718.94;;;14.91;32.88
22651;BME280;11492;42.646;23.400;2023-03-15T09:59:23;93719.66;;;14.87;32.83
22651;BME280;11492;42.646;23.400;2023-03-15T10:01:52;93717.75;;;14.66;33.18
22651;BME280;11492;42.646;23.400;2023-03-15T10:04:27;93714.63;;;14.53;34.13
22651;BME280;11492;42.646;23.400;2023-03-15T10:06:58;93721.41;;;14.54;33.99
22651;BME280;11492;42.646;23.400;2023-03-15T10:09:27;93721.56;;;14.47;34.51
22651;BME280;11492;42.646;23.400;2023-03-15T10:12:14;93720.91;;;14.41;34.27
22651;BME280;11492;42.646;23.400;2023-03-15T10:14:54;93723.78;;;14.28;34.25
22651;BME280;11492;42.646;23.400;2023-03-15T10:20:16;93718.59;;;14.55;33.97
22651;BME280;11492;42.646;23.400;2023-03-15T10:22:58;93716.28;;;14.86;33.68
22651;BME280;11492;42.646;23.400;2023-03-15T10:25:28;93715.91;;;15.10;33.10
22651;BME280;11492;42.646;23.400;2023-03-15T10:27:59;93714.06;;;15.11;33.42
22651;BME280;11492;42.646;23.400;2023-03-15T10:30:28;93716.91;;;15.09;33.40
22651;BME280;11492;42.646;23.400;2023-03-15T10:35:23;93701.03;;;15.06;33.32
22651;BME280;11492;42.646;23.400;2023-03-15T10:37:49;93704.44;;;14.95;33.35
22651;BME280;11492;42.646;23.400;2023-03-15T10:40:15;93712.31;;;14.84;33.02
22651;BME280;11492;42.646;23.400;2023-03-15T10:43:00;93688.38;;;14.49;33.40
22651;BME280;11492;42.646;23.400;2023-03-15T10:45:25;93707.41;;;14.55;33.82
22651;BME280;11492;42.646;23.400;2023-03-15T10:47:53;93692.91;;;14.43;33.83
22651;BME280;11492;42.646;23.400;2023-03-15T10:50:28;93712.09;;;14.42;33.51
22651;BME280;11492;42.646;23.400;2023-03-15T10:52:56;93718.69;;;14.33;34.22
22651;BME280;11492;42.646;23.400;2023-03-15T10:55:34;93713.50;;;14.33;34.23
22651;BME280;11492;42.646;23.400;2023-03-15T11:01:02;93707.38;;;14.11;33.97
22651;BME280;11492;42.646;23.400;2023-03-15T11:03:32;93708.34;;;13.94;35.10
22651;BME280;11492;42.646;23.400;2023-03-15T11:05:58;93709.13;;;13.83;34.58
22651;BME280;11492;42.646;23.400;2023-03-15T11:08:44;93697.72;;;13.84;35.31
22651;BME280;11492;42.646;23.400;2023-03-15T11:11:10;93685.59;;;13.73;35.49
22651;BME280;11492;42.646;23.400;2023-03-15T11:13:37;93702.91;;;13.84;35.52
22651;BME280;11492;42.646;23.400;2023-03-15T11:21:10;93695.69;;;13.86;34.26
22651;BME280;11492;42.646;23.400;2023-03-15T11:23:38;93700.66;;;13.88;35.22
22651;BME280;11492;42.646;23.400;2023-03-15T11:26:05;93689.94;;;13.84;35.19
22651;BME280;11492;42.646;23.400;2023-03-15T11:28:34;93704.56;;;14.13;35.65
22651;BME280;11492;42.646;23.400;2023-03-15T11:31:02;93696.06;;;14.17;35.06
22651;BME280;11492;42.646;23.400;2023-03-15T11:33:50;93692.41;;;14.29;35.02
22651;BME280;11492;42.646;23.400;2023-03-15T11:36:19;93677.47;;;14.36;34.77
22651;BME280;11492;42.646;23.400;2023-03-15T11:38:46;93689.53;;;14.58;34.22
22651;BME280;11492;42.646;23.400;2023-03-15T11:41:28;93687.19;;;14.73;34.95
22651;BME280;11492;42.646;23.400;2023-03-15T11:44:03;93687.75;;;14.75;33.55
22651;BME280;11492;42.646;23.400;2023-03-15T11:46:35;93690.81;;;14.72;34.32
22651;BME280;11492;42.646;23.400;2023-03-15T11:51:58;93662.84;;;14.79;33.95
22651;BME280;11492;42.646;23.400;2023-03-15T11:54:28;93664.44;;;14.80;33.85
22651;BME280;11492;42.646;23.400;2023-03-15T11:56:55;93677.66;;;14.95;33.77
22651;BME280;11492;42.646;23.400;2023-03-15T11:59:31;93681.78;;;14.91;33.70
22651;BME280;11492;42.646;23.400;2023-03-15T12:04:54;93667.59;;;14.49;33.97
22651;BME280;11492;42.646;23.400;2023-03-15T12:10:37;93642.47;;;14.39;34.41
22651;BME280;11492;42.646;23.400;2023-03-15T12:12:44;93654.59;;;14.49;34.96
22651;BME280;11492;42.646;23.400;2023-03-15T12:17:42;93640.31;;;14.36;34.47
22651;BME280;11492;42.646;23.400;2023-03-15T12:22:49;93651.59;;;14.41;35.60
22651;BME280;11492;42.646;23.400;2023-03-15T12:25:19;93655.38;;;14.34;34.78
22651;BME280;11492;42.646;23.400;2023-03-15T12:27:49;93658.66;;;14.29;35.89
22651;BME280;11492;42.646;23.400;2023-03-15T12:30:20;93656.28;;;14.28;35.54
22651;BME280;11492;42.646;23.400;2023-03-15T12:32:50;93653.03;;;14.21;35.99
22651;BME280;11492;42.646;23.400;2023-03-15T12:35:19;93628.63;;;14.06;36.60
22651;BME280;11492;42.646;23.400;2023-03-15T12:37:47;93630.97;;;14.07;35.70
22651;BME280;11492;42.646;23.400;2023-03-15T12:53:08;93643.69;;;13.93;36.23
22651;BME280;11492;42.646;23.400;2023-03-15T12:55:37;93638.97;;;13.78;35.65
22651;BME280;11492;42.646;23.400;2023-03-15T12:58:09;93646.06;;;13.83;36.28
22651;BME280;11492;42.646;23.400;2023-03-15T13:00:37;93643.84;;;13.75;36.12
22651;BME280;11492;42.646;23.400;2023-03-15T13:05:51;93639.03;;;13.67;35.87
22651;BME280;11492;42.646;23.400;2023-03-15T13:08:22;93634.31;;;13.53;35.93
22651;BME280;11492;42.646;23.400;2023-03-15T13:13:46;93629.78;;;13.60;36.15
22651;BME280;11492;42.646;23.400;2023-03-15T13:22:21;93626.06;;;13.67;36.11
22651;BME280;11492;42.646;23.400;2023-03-15T13:25:08;93640.13;;;13.71;35.35
22651;BME280;11492;42.646;23.400;2023-03-15T13:27:55;93610.97;;;13.53;36.22
22651;BME280;11492;42.646;23.400;2023-03-15T13:33:01;93631.50;;;13.54;36.51
22651;BME280;11492;42.646;23.400;2023-03-15T13:35:26;93628.75;;;13.61;36.89
22651;BME280;11492;42.646;23.400;2023-03-15T13:38:05;93635.66;;;13.67;36.75
22651;BME280;11492;42.646;23.400;2023-03-15T13:40:31;93638.84;;;13.85;36.39
22651;BME280;11492;42.646;23.400;2023-03-15T13:42:59;93641.06;;;14.04;36.55
22651;BME280;11492;42.646;23.400;2023-03-15T13:45:26;93642.97;;;14.08;35.59
22651;BME280;11492;42.646;23.400;2023-03-15T13:47:51;93640.06;;;14.21;35.74
22651;BME280;11492;42.646;23.400;2023-03-15T13:50:19;93634.63;;;14.22;35.66
22651;BME280;11492;42.646;23.400;2023-03-15T13:52:45;93644.56;;;14.42;35.75
22651;BME280;11492;42.646;23.400;2023-03-15T13:55:20;93628.44;;;14.40;35.66
22651;BME280;11492;42.646;23.400;2023-03-15T13:57:55;93645.38;;;14.42;35.11
22651;BME280;11492;42.646;23.400;2023-03-15T14:00:22;93639.22;;;14.32;35.31
22651;BME280;11492;42.646;23.400;2023-03-15T14:02:57;93655.44;;;14.39;35.87
22651;BME280;11492;42.646;23.400;2023-03-15T14:05:30;93612.78;;;14.19;35.05